sensor_id;sensor_type;location;lat;lon;timestamp;P1;durP1;ratioP1;P2;durP2;ratioP2
52942;SDS011;38809;53.300;6.614;2024-02-14T00:00:22;7.68;;;5.13;;
52942;SDS011;38809;53.300;6.614;2024-02-14T00:02:50;5.90;;;4.07;;
52942;SDS011;38809;53.300;6.614;2024-02-14T00:05:16;6.40;;;4.40;;
52942;SDS011;38809;53.300;6.614;2024-02-14T00:07:43;5.65;;;4.30;;
52942;SDS011;38809;53.300;6.614;2024-02-14T00:10:09;7.78;;;4.05;;
52942;SDS011;38809;53.300;6.614;2024-02-14T00:12:36;6.38;;;4.40;;
52942;SDS011;38809;53.300;6.614;2024-02-14T00:15:03;6.18;;;4.15;;
52942;SDS011;38809;53.300;6.614;2024-02-14T00:17:30;8.18;;;4.80;;
52942;SDS011;38809;53.300;6.614;2024-02-14T00:19:57;7.05;;;4.85;;
52942;SDS011;38809;53.300;6.614;2024-02-14T00:22:23;6.45;;;5.10;;
52942;SDS011;38809;53.300;6.614;2024-02-14T00:24:49;7.88;;;4.70;;
52942;SDS011;38809;53.300;6.614;2024-02-14T00:27:15;6.13;;;4.90;;
52942;SDS011;38809;53.300;6.614;2024-02-14T00:29:42;6.75;;;4.78;;
52942;SDS011;38809;53.300;6.614;2024-02-14T00:32:10;6.15;;;4.97;;
52942;SDS011;38809;53.300;6.614;2024-02-14T00:34:36;8.00;;;5.20;;
52942;SDS011;38809;53.300;6.614;2024-02-14T00:37:02;7.60;;;5.80;;
52942;SDS011;38809;53.300;6.614;2024-02-14T00:39:29;6.80;;;4.95;;
52942;SDS011;38809;53.300;6.614;2024-02-14T00:41:55;6.85;;;4.95;;
52942;SDS011;38809;53.300;6.614;2024-02-14T00:44:21;7.13;;;5.47;;
52942;SDS011;38809;53.300;6.614;2024-02-14T00:49:14;7.28;;;5.45;;
52942;SDS011;38809;53.300;6.614;2024-02-14T00:51:40;8.35;;;5.93;;
52942;SDS011;38809;53.300;6.614;2024-02-14T00:54:06;10.98;;;7.03;;
52942;SDS011;38809;53.300;6.614;2024-02-14T00:56:33;7.43;;;6.03;;
52942;SDS011;38809;53.300;6.614;2024-02-14T00:59:00;7.28;;;6.07;;
52942;SDS011;38809;53.300;6.614;2024-02-14T01:01:26;6.47;;;5.43;;
52942;SDS011;38809;53.300;6.614;2024-02-14T01:03:52;7.03;;;5.80;;
52942;SDS011;38809;53.300;6.614;2024-02-14T01:06:19;8.50;;;5.85;;
52942;SDS011;38809;53.300;6.614;2024-02-14T01:08:45;9.80;;;5.95;;
52942;SDS011;38809;53.300;6.614;2024-02-14T01:11:11;7.82;;;5.80;;
52942;SDS011;38809;53.300;6.614;2024-02-14T01:13:37;7.13;;;5.75;;
52942;SDS011;38809;53.300;6.614;2024-02-14T01:16:03;9.45;;;6.25;;
52942;SDS011;38809;53.300;6.614;2024-02-14T01:18:30;8.23;;;5.78;;
52942;SDS011;38809;53.300;6.614;2024-02-14T01:20:57;7.05;;;5.82;;
52942;SDS011;38809;53.300;6.614;2024-02-14T01:23:26;8.25;;;6.15;;
52942;SDS011;38809;53.300;6.614;2024-02-14T01:25:52;8.43;;;6.00;;
52942;SDS011;38809;53.300;6.614;2024-02-14T01:28:20;8.07;;;6.07;;
52942;SDS011;38809;53.300;6.614;2024-02-14T01:30:46;8.07;;;5.60;;
52942;SDS011;38809;53.300;6.614;2024-02-14T01:33:13;6.95;;;5.95;;
52942;SDS011;38809;53.300;6.614;2024-02-14T01:35:39;6.65;;;5.53;;
52942;SDS011;38809;53.300;6.614;2024-02-14T01:38:07;6.88;;;5.45;;
52942;SDS011;38809;53.300;6.614;2024-02-14T01:40:33;6.30;;;5.65;;
52942;SDS011;38809;53.300;6.614;2024-02-14T01:43:00;8.73;;;5.78;;
52942;SDS011;38809;53.300;6.614;2024-02-14T01:45:26;6.10;;;5.28;;
52942;SDS011;38809;53.300;6.614;2024-02-14T01:47:52;5.95;;;5.13;;
52942;SDS011;38809;53.300;6.614;2024-02-14T01:50:20;5.75;;;5.07;;
52942;SDS011;38809;53.300;6.614;2024-02-14T01:52:53;7.25;;;5.38;;
52942;SDS011;38809;53.300;6.614;2024-02-14T01:57:46;5.88;;;4.78;;
52942;SDS011;38809;53.300;6.614;2024-02-14T02:00:13;6.38;;;4.70;;
52942;SDS011;38809;53.300;6.614;2024-02-14T02:02:43;5.57;;;4.82;;
52942;SDS011;38809;53.300;6.614;2024-02-14T02:05:09;7.47;;;5.03;;
52942;SDS011;38809;53.300;6.614;2024-02-14T02:07:35;5.20;;;4.63;;
52942;SDS011;38809;53.300;6.614;2024-02-14T02:10:05;5.07;;;4.53;;
52942;SDS011;38809;53.300;6.614;2024-02-14T02:12:31;5.57;;;4.72;;
52942;SDS011;38809;53.300;6.614;2024-02-14T02:14:58;5.15;;;4.45;;
52942;SDS011;38809;53.300;6.614;2024-02-14T02:17:24;6.13;;;5.10;;
52942;SDS011;38809;53.300;6.614;2024-02-14T02:19:53;5.07;;;4.45;;
52942;SDS011;38809;53.300;6.614;2024-02-14T02:22:19;5.50;;;4.30;;
52942;SDS011;38809;53.300;6.614;2024-02-14T02:24:46;6.28;;;4.88;;
52942;SDS011;38809;53.300;6.614;2024-02-14T02:29:41;5.13;;;4.20;;
52942;SDS011;38809;53.300;6.614;2024-02-14T02:32:07;5.55;;;4.32;;
52942;SDS011;38809;53.300;6.614;2024-02-14T02:34:35;6.13;;;5.13;;
52942;SDS011;38809;53.300;6.614;2024-02-14T02:37:04;6.13;;;4.07;;
52942;SDS011;38809;53.300;6.614;2024-02-14T02:39:34;4.88;;;4.38;;
52942;SDS011;38809;53.300;6.614;2024-02-14T02:42:02;4.90;;;3.90;;
52942;SDS011;38809;53.300;6.614;2024-02-14T02:44:28;4.82;;;4.00;;
52942;SDS011;38809;53.300;6.614;2024-02-14T02:46:54;4.43;;;4.00;;
52942;SDS011;38809;53.300;6.614;2024-02-14T02:49:21;4.50;;;3.80;;
52942;SDS011;38809;53.300;6.614;2024-02-14T02:51:47;4.80;;;3.85;;
52942;SDS011;38809;53.300;6.614;2024-02-14T02:54:13;4.85;;;4.18;;
52942;SDS011;38809;53.300;6.614;2024-02-14T02:56:39;4.95;;;4.13;;
52942;SDS011;38809;53.300;6.614;2024-02-14T02:59:06;4.45;;;3.75;;
52942;SDS011;38809;53.300;6.614;2024-02-14T03:01:35;4.65;;;3.72;;
52942;SDS011;38809;53.300;6.614;2024-02-14T03:04:02;4.72;;;3.75;;
52942;SDS011;38809;53.300;6.614;2024-02-14T03:06:28;4.75;;;3.92;;
52942;SDS011;38809;53.300;6.614;2024-02-14T03:08:54;4.70;;;3.90;;
52942;SDS011;38809;53.300;6.614;2024-02-14T03:11:22;6.13;;;4.20;;
52942;SDS011;38809;53.300;6.614;2024-02-14T03:13:48;4.78;;;3.45;;
52942;SDS011;38809;53.300;6.614;2024-02-14T03:16:15;4.78;;;3.70;;
52942;SDS011;38809;53.300;6.614;2024-02-14T03:18:42;4.65;;;3.92;;
52942;SDS011;38809;53.300;6.614;2024-02-14T03:21:08;4.50;;;3.60;;
52942;SDS011;38809;53.300;6.614;2024-02-14T03:23:34;4.72;;;3.53;;
52942;SDS011;38809;53.300;6.614;2024-02-14T03:26:00;4.50;;;3.88;;
52942;SDS011;38809;53.300;6.614;2024-02-14T03:28:27;4.15;;;3.33;;
52942;SDS011;38809;53.300;6.614;2024-02-14T03:30:54;4.72;;;3.55;;
52942;SDS011;38809;53.300;6.614;2024-02-14T03:33:22;3.80;;;3.08;;
52942;SDS011;38809;53.300;6.614;2024-02-14T03:35:48;3.97;;;3.25;;
52942;SDS011;38809;53.300;6.614;2024-02-14T03:38:24;4.50;;;3.58;;
52942;SDS011;38809;53.300;6.614;2024-02-14T03:40:50;3.80;;;3.33;;
52942;SDS011;38809;53.300;6.614;2024-02-14T03:43:16;3.97;;;3.17;;
52942;SDS011;38809;53.300;6.614;2024-02-14T03:45:42;4.70;;;3.17;;
52942;SDS011;38809;53.300;6.614;2024-02-14T03:48:09;4.82;;;3.13;;
52942;SDS011;38809;53.300;6.614;2024-02-14T03:50:37;4.72;;;3.30;;
52942;SDS011;38809;53.300;6.614;2024-02-14T03:53:03;3.90;;;2.90;;
52942;SDS011;38809;53.300;6.614;2024-02-14T03:55:30;3.88;;;2.70;;
52942;SDS011;38809;53.300;6.614;2024-02-14T03:57:56;3.85;;;2.80;;
52942;SDS011;38809;53.300;6.614;2024-02-14T04:00:22;3.65;;;2.78;;
52942;SDS011;38809;53.300;6.614;2024-02-14T04:02:48;4.28;;;3.08;;
52942;SDS011;38809;53.300;6.614;2024-02-14T04:05:17;3.85;;;2.97;;
52942;SDS011;38809;53.300;6.614;2024-02-14T04:07:44;4.10;;;3.10;;
52942;SDS011;38809;53.300;6.614;2024-02-14T04:10:14;3.80;;;3.00;;
52942;SDS011;38809;53.300;6.614;2024-02-14T04:12:40;4.95;;;3.60;;
52942;SDS011;38809;53.300;6.614;2024-02-14T04:15:06;4.82;;;3.50;;
52942;SDS011;38809;53.300;6.614;2024-02-14T04:17:32;4.22;;;2.88;;
52942;SDS011;38809;53.300;6.614;2024-02-14T04:19:58;4.47;;;3.28;;
52942;SDS011;38809;53.300;6.614;2024-02-14T04:22:24;5.95;;;4.18;;
52942;SDS011;38809;53.300;6.614;2024-02-14T04:24:50;4.82;;;3.78;;
52942;SDS011;38809;53.300;6.614;2024-02-14T04:27:17;4.55;;;3.78;;
52942;SDS011;38809;53.300;6.614;2024-02-14T04:29:46;5.32;;;3.58;;
52942;SDS011;38809;53.300;6.614;2024-02-14T04:32:13;6.47;;;4.40;;
52942;SDS011;38809;53.300;6.614;2024-02-14T04:34:39;5.45;;;3.97;;
52942;SDS011;38809;53.300;6.614;2024-02-14T04:37:07;4.97;;;3.97;;
52942;SDS011;38809;53.300;6.614;2024-02-14T04:39:37;5.88;;;4.35;;
52942;SDS011;38809;53.300;6.614;2024-02-14T04:42:03;6.35;;;4.45;;
52942;SDS011;38809;53.300;6.614;2024-02-14T04:44:30;6.05;;;4.40;;
52942;SDS011;38809;53.300;6.614;2024-02-14T04:46:57;6.35;;;4.90;;
52942;SDS011;38809;53.300;6.614;2024-02-14T04:49:24;7.30;;;5.05;;
52942;SDS011;38809;53.300;6.614;2024-02-14T04:51:51;7.75;;;5.35;;
52942;SDS011;38809;53.300;6.614;2024-02-14T04:54:17;6.53;;;5.13;;
52942;SDS011;38809;53.300;6.614;2024-02-14T04:56:43;6.97;;;5.03;;
52942;SDS011;38809;53.300;6.614;2024-02-14T05:01:36;7.25;;;5.13;;
52942;SDS011;38809;53.300;6.614;2024-02-14T05:04:04;7.25;;;4.97;;
52942;SDS011;38809;53.300;6.614;2024-02-14T05:06:31;6.88;;;5.13;;
52942;SDS011;38809;53.300;6.614;2024-02-14T05:08:57;8.82;;;5.78;;
52942;SDS011;38809;53.300;6.614;2024-02-14T05:11:23;8.05;;;5.93;;
52942;SDS011;38809;53.300;6.614;2024-02-14T05:13:49;7.35;;;5.40;;
52942;SDS011;38809;53.300;6.614;2024-02-14T05:16:21;6.95;;;5.32;;
52942;SDS011;38809;53.300;6.614;2024-02-14T05:18:48;6.88;;;5.20;;
52942;SDS011;38809;53.300;6.614;2024-02-14T05:21:15;8.32;;;5.43;;
52942;SDS011;38809;53.300;6.614;2024-02-14T05:23:41;8.38;;;5.53;;
52942;SDS011;38809;53.300;6.614;2024-02-14T05:26:08;7.38;;;5.13;;
52942;SDS011;38809;53.300;6.614;2024-02-14T05:28:34;10.15;;;6.53;;
52942;SDS011;38809;53.300;6.614;2024-02-14T05:31:00;8.00;;;5.50;;
52942;SDS011;38809;53.300;6.614;2024-02-14T05:33:26;8.18;;;5.63;;
52942;SDS011;38809;53.300;6.614;2024-02-14T05:35:52;8.23;;;6.00;;
52942;SDS011;38809;53.300;6.614;2024-02-14T05:38:19;7.50;;;5.18;;
52942;SDS011;38809;53.300;6.614;2024-02-14T05:40:48;9.27;;;5.80;;
52942;SDS011;38809;53.300;6.614;2024-02-14T05:43:14;11.07;;;6.80;;
52942;SDS011;38809;53.300;6.614;2024-02-14T05:45:41;9.88;;;5.95;;
52942;SDS011;38809;53.300;6.614;2024-02-14T05:50:33;9.25;;;5.65;;
52942;SDS011;38809;53.300;6.614;2024-02-14T05:53:00;7.95;;;5.10;;
52942;SDS011;38809;53.300;6.614;2024-02-14T05:57:52;6.65;;;4.50;;
52942;SDS011;38809;53.300;6.614;2024-02-14T06:00:18;7.47;;;4.63;;
52942;SDS011;38809;53.300;6.614;2024-02-14T06:02:46;8.93;;;4.65;;
52942;SDS011;38809;53.300;6.614;2024-02-14T06:05:12;7.13;;;4.18;;
52942;SDS011;38809;53.300;6.614;2024-02-14T06:07:38;7.80;;;4.28;;
52942;SDS011;38809;53.300;6.614;2024-02-14T06:12:31;5.93;;;3.58;;
52942;SDS011;38809;53.300;6.614;2024-02-14T06:14:58;5.53;;;3.75;;
52942;SDS011;38809;53.300;6.614;2024-02-14T06:17:24;6.20;;;4.00;;
52942;SDS011;38809;53.300;6.614;2024-02-14T06:19:51;6.85;;;3.95;;
52942;SDS011;38809;53.300;6.614;2024-02-14T06:22:18;7.80;;;4.05;;
52942;SDS011;38809;53.300;6.614;2024-02-14T06:24:44;8.95;;;4.20;;
52942;SDS011;38809;53.300;6.614;2024-02-14T06:27:10;5.78;;;3.83;;
52942;SDS011;38809;53.300;6.614;2024-02-14T06:29:38;6.82;;;3.53;;
52942;SDS011;38809;53.300;6.614;2024-02-14T06:32:07;7.97;;;3.65;;
52942;SDS011;38809;53.300;6.614;2024-02-14T06:34:33;6.05;;;3.67;;
52942;SDS011;38809;53.300;6.614;2024-02-14T06:36:59;6.68;;;4.13;;
52942;SDS011;38809;53.300;6.614;2024-02-14T06:39:25;7.78;;;3.70;;
52942;SDS011;38809;53.300;6.614;2024-02-14T06:41:52;5.82;;;3.65;;
52942;SDS011;38809;53.300;6.614;2024-02-14T06:44:18;8.82;;;3.70;;
52942;SDS011;38809;53.300;6.614;2024-02-14T06:46:44;9.82;;;3.80;;
52942;SDS011;38809;53.300;6.614;2024-02-14T06:49:10;7.03;;;3.60;;
52942;SDS011;38809;53.300;6.614;2024-02-14T06:51:36;8.30;;;4.07;;
52942;SDS011;38809;53.300;6.614;2024-02-14T06:54:02;10.35;;;4.22;;
52942;SDS011;38809;53.300;6.614;2024-02-14T06:56:32;14.85;;;4.93;;
52942;SDS011;38809;53.300;6.614;2024-02-14T06:58:58;9.23;;;4.88;;
52942;SDS011;38809;53.300;6.614;2024-02-14T07:01:28;11.70;;;4.93;;
52942;SDS011;38809;53.300;6.614;2024-02-14T07:03:54;12.55;;;5.40;;
52942;SDS011;38809;53.300;6.614;2024-02-14T07:06:20;14.00;;;5.22;;
52942;SDS011;38809;53.300;6.614;2024-02-14T07:08:47;15.18;;;5.45;;
52942;SDS011;38809;53.300;6.614;2024-02-14T07:13:40;13.60;;;5.40;;
52942;SDS011;38809;53.300;6.614;2024-02-14T07:16:07;25.15;;;6.55;;
52942;SDS011;38809;53.300;6.614;2024-02-14T07:18:36;19.55;;;6.55;;
52942;SDS011;38809;53.300;6.614;2024-02-14T07:21:02;17.45;;;6.32;;
52942;SDS011;38809;53.300;6.614;2024-02-14T07:23:29;26.02;;;6.63;;
52942;SDS011;38809;53.300;6.614;2024-02-14T07:25:55;24.63;;;7.65;;
52942;SDS011;38809;53.300;6.614;2024-02-14T07:28:21;23.83;;;7.35;;
52942;SDS011;38809;53.300;6.614;2024-02-14T07:30:47;19.50;;;6.78;;
52942;SDS011;38809;53.300;6.614;2024-02-14T07:33:13;24.60;;;7.65;;
52942;SDS011;38809;53.300;6.614;2024-02-14T07:35:39;24.42;;;6.53;;
52942;SDS011;38809;53.300;6.614;2024-02-14T07:38:06;22.55;;;7.20;;
52942;SDS011;38809;53.300;6.614;2024-02-14T07:40:32;22.25;;;6.43;;
52942;SDS011;38809;53.300;6.614;2024-02-14T07:42:58;21.65;;;6.38;;
52942;SDS011;38809;53.300;6.614;2024-02-14T07:47:51;28.42;;;7.15;;
52942;SDS011;38809;53.300;6.614;2024-02-14T07:50:17;31.55;;;7.28;;
52942;SDS011;38809;53.300;6.614;2024-02-14T07:52:43;28.58;;;7.25;;
52942;SDS011;38809;53.300;6.614;2024-02-14T07:55:10;25.95;;;6.47;;
52942;SDS011;38809;53.300;6.614;2024-02-14T07:57:37;29.25;;;7.45;;
52942;SDS011;38809;53.300;6.614;2024-02-14T08:02:30;25.63;;;6.05;;
52942;SDS011;38809;53.300;6.614;2024-02-14T08:04:56;28.10;;;7.32;;
52942;SDS011;38809;53.300;6.614;2024-02-14T08:07:22;27.70;;;6.60;;
52942;SDS011;38809;53.300;6.614;2024-02-14T08:09:48;20.70;;;5.65;;
52942;SDS011;38809;53.300;6.614;2024-02-14T08:12:14;23.25;;;6.15;;
52942;SDS011;38809;53.300;6.614;2024-02-14T08:14:40;23.17;;;6.03;;
52942;SDS011;38809;53.300;6.614;2024-02-14T08:17:06;21.05;;;6.00;;
52942;SDS011;38809;53.300;6.614;2024-02-14T08:19:32;23.67;;;6.38;;
52942;SDS011;38809;53.300;6.614;2024-02-14T08:21:59;23.23;;;6.88;;
52942;SDS011;38809;53.300;6.614;2024-02-14T08:24:26;30.67;;;6.80;;
52942;SDS011;38809;53.300;6.614;2024-02-14T08:26:53;24.48;;;6.55;;
52942;SDS011;38809;53.300;6.614;2024-02-14T08:29:20;25.88;;;7.63;;
52942;SDS011;38809;53.300;6.614;2024-02-14T08:31:46;26.10;;;6.32;;
52942;SDS011;38809;53.300;6.614;2024-02-14T08:34:13;30.45;;;8.25;;
52942;SDS011;38809;53.300;6.614;2024-02-14T08:36:39;23.58;;;5.93;;
52942;SDS011;38809;53.300;6.614;2024-02-14T08:39:09;22.25;;;6.57;;
52942;SDS011;38809;53.300;6.614;2024-02-14T08:41:36;23.98;;;6.57;;
52942;SDS011;38809;53.300;6.614;2024-02-14T08:44:02;20.20;;;6.43;;
52942;SDS011;38809;53.300;6.614;2024-02-14T08:46:29;28.15;;;6.25;;
52942;SDS011;38809;53.300;6.614;2024-02-14T08:48:56;26.35;;;6.10;;
52942;SDS011;38809;53.300;6.614;2024-02-14T08:51:22;28.10;;;8.18;;
52942;SDS011;38809;53.300;6.614;2024-02-14T08:53:49;27.40;;;7.60;;
52942;SDS011;38809;53.300;6.614;2024-02-14T08:56:20;21.80;;;6.55;;
52942;SDS011;38809;53.300;6.614;2024-02-14T08:58:47;22.90;;;7.20;;
52942;SDS011;38809;53.300;6.614;2024-02-14T09:03:41;21.08;;;6.80;;
52942;SDS011;38809;53.300;6.614;2024-02-14T09:06:12;20.05;;;6.70;;
52942;SDS011;38809;53.300;6.614;2024-02-14T09:08:38;28.52;;;7.13;;
52942;SDS011;38809;53.300;6.614;2024-02-14T09:11:05;21.80;;;5.60;;
52942;SDS011;38809;53.300;6.614;2024-02-14T09:13:31;18.60;;;5.85;;
52942;SDS011;38809;53.300;6.614;2024-02-14T09:15:57;19.63;;;5.60;;
52942;SDS011;38809;53.300;6.614;2024-02-14T09:18:24;20.80;;;6.38;;
52942;SDS011;38809;53.300;6.614;2024-02-14T09:20:50;18.55;;;5.78;;
52942;SDS011;38809;53.300;6.614;2024-02-14T09:23:17;24.35;;;7.13;;
52942;SDS011;38809;53.300;6.614;2024-02-14T09:25:47;21.35;;;7.03;;
52942;SDS011;38809;53.300;6.614;2024-02-14T09:28:15;20.13;;;6.40;;
52942;SDS011;38809;53.300;6.614;2024-02-14T09:30:41;21.48;;;7.18;;
52942;SDS011;38809;53.300;6.614;2024-02-14T09:33:07;17.42;;;7.97;;
52942;SDS011;38809;53.300;6.614;2024-02-14T09:38:04;24.83;;;8.73;;
52942;SDS011;38809;53.300;6.614;2024-02-14T09:40:31;20.85;;;7.53;;
52942;SDS011;38809;53.300;6.614;2024-02-14T09:42:57;21.23;;;7.78;;
52942;SDS011;38809;53.300;6.614;2024-02-14T09:45:28;20.05;;;7.72;;
52942;SDS011;38809;53.300;6.614;2024-02-14T09:47:58;20.20;;;8.50;;
52942;SDS011;38809;53.300;6.614;2024-02-14T09:50:24;24.35;;;8.43;;
52942;SDS011;38809;53.300;6.614;2024-02-14T09:52:52;22.58;;;9.30;;
52942;SDS011;38809;53.300;6.614;2024-02-14T09:55:20;16.13;;;8.55;;
52942;SDS011;38809;53.300;6.614;2024-02-14T09:57:46;21.33;;;8.70;;
52942;SDS011;38809;53.300;6.614;2024-02-14T10:00:12;23.15;;;9.63;;
52942;SDS011;38809;53.300;6.614;2024-02-14T10:02:41;22.27;;;10.50;;
52942;SDS011;38809;53.300;6.614;2024-02-14T10:05:08;22.55;;;10.00;;
52942;SDS011;38809;53.300;6.614;2024-02-14T10:07:40;22.90;;;9.90;;
52942;SDS011;38809;53.300;6.614;2024-02-14T10:10:07;19.00;;;9.35;;
52942;SDS011;38809;53.300;6.614;2024-02-14T10:12:33;20.40;;;10.75;;
52942;SDS011;38809;53.300;6.614;2024-02-14T10:14:59;20.52;;;10.10;;
52942;SDS011;38809;53.300;6.614;2024-02-14T10:17:26;20.27;;;9.68;;
52942;SDS011;38809;53.300;6.614;2024-02-14T10:19:59;17.63;;;9.07;;
52942;SDS011;38809;53.300;6.614;2024-02-14T10:22:32;22.98;;;10.70;;
52942;SDS011;38809;53.300;6.614;2024-02-14T10:24:59;19.23;;;10.65;;
52942;SDS011;38809;53.300;6.614;2024-02-14T10:27:25;20.95;;;10.32;;
52942;SDS011;38809;53.300;6.614;2024-02-14T10:29:51;19.55;;;11.32;;
52942;SDS011;38809;53.300;6.614;2024-02-14T10:32:18;21.35;;;10.43;;
52942;SDS011;38809;53.300;6.614;2024-02-14T10:34:44;19.38;;;8.50;;
52942;SDS011;38809;53.300;6.614;2024-02-14T10:37:11;23.98;;;9.60;;
52942;SDS011;38809;53.300;6.614;2024-02-14T10:39:40;18.67;;;9.00;;
52942;SDS011;38809;53.300;6.614;2024-02-14T10:42:07;22.00;;;8.95;;
52942;SDS011;38809;53.300;6.614;2024-02-14T10:44:34;18.75;;;9.57;;
52942;SDS011;38809;53.300;6.614;2024-02-14T10:47:02;15.07;;;8.65;;
52942;SDS011;38809;53.300;6.614;2024-02-14T10:49:28;14.70;;;7.65;;
52942;SDS011;38809;53.300;6.614;2024-02-14T10:51:55;14.43;;;8.05;;
52942;SDS011;38809;53.300;6.614;2024-02-14T10:54:22;15.13;;;7.47;;
52942;SDS011;38809;53.300;6.614;2024-02-14T10:56:49;12.88;;;7.07;;
52942;SDS011;38809;53.300;6.614;2024-02-14T10:59:17;12.85;;;6.88;;
52942;SDS011;38809;53.300;6.614;2024-02-14T11:01:44;14.55;;;8.07;;
52942;SDS011;38809;53.300;6.614;2024-02-14T11:06:47;14.75;;;7.78;;
52942;SDS011;38809;53.300;6.614;2024-02-14T11:09:13;12.48;;;7.65;;
52942;SDS011;38809;53.300;6.614;2024-02-14T11:11:43;12.05;;;7.07;;
52942;SDS011;38809;53.300;6.614;2024-02-14T11:14:10;12.68;;;6.78;;
52942;SDS011;38809;53.300;6.614;2024-02-14T11:16:37;11.00;;;6.43;;
52942;SDS011;38809;53.300;6.614;2024-02-14T11:21:42;9.07;;;5.70;;
52942;SDS011;38809;53.300;6.614;2024-02-14T11:24:09;11.23;;;6.70;;
52942;SDS011;38809;53.300;6.614;2024-02-14T11:26:46;7.88;;;5.68;;
52942;SDS011;38809;53.300;6.614;2024-02-14T11:29:14;9.45;;;5.93;;
52942;SDS011;38809;53.300;6.614;2024-02-14T11:31:41;9.00;;;6.43;;
52942;SDS011;38809;53.300;6.614;2024-02-14T11:34:08;11.27;;;6.15;;
52942;SDS011;38809;53.300;6.614;2024-02-14T11:36:36;8.82;;;5.43;;
52942;SDS011;38809;53.300;6.614;2024-02-14T11:41:32;8.75;;;5.72;;
52942;SDS011;38809;53.300;6.614;2024-02-14T11:44:00;8.73;;;5.60;;
52942;SDS011;38809;53.300;6.614;2024-02-14T11:46:29;8.20;;;5.15;;
52942;SDS011;38809;53.300;6.614;2024-02-14T11:48:55;10.63;;;5.53;;
52942;SDS011;38809;53.300;6.614;2024-02-14T11:51:22;10.27;;;5.95;;
52942;SDS011;38809;53.300;6.614;2024-02-14T11:53:48;12.45;;;5.82;;
52942;SDS011;38809;53.300;6.614;2024-02-14T11:56:14;11.05;;;5.88;;
52942;SDS011;38809;53.300;6.614;2024-02-14T11:58:41;10.20;;;6.30;;
52942;SDS011;38809;53.300;6.614;2024-02-14T12:01:07;9.55;;;6.25;;
52942;SDS011;38809;53.300;6.614;2024-02-14T12:03:34;10.25;;;6.03;;
52942;SDS011;38809;53.300;6.614;2024-02-14T12:06:01;8.27;;;5.35;;
52942;SDS011;38809;53.300;6.614;2024-02-14T12:08:28;9.43;;;5.65;;
52942;SDS011;38809;53.300;6.614;2024-02-14T12:10:54;7.20;;;4.65;;
52942;SDS011;38809;53.300;6.614;2024-02-14T12:13:20;7.55;;;5.18;;
52942;SDS011;38809;53.300;6.614;2024-02-14T12:15:47;6.28;;;4.47;;
52942;SDS011;38809;53.300;6.614;2024-02-14T12:18:14;7.63;;;4.57;;
52942;SDS011;38809;53.300;6.614;2024-02-14T12:20:43;5.68;;;3.90;;
52942;SDS011;38809;53.300;6.614;2024-02-14T12:23:16;6.22;;;3.35;;
52942;SDS011;38809;53.300;6.614;2024-02-14T12:25:43;4.28;;;3.00;;
52942;SDS011;38809;53.300;6.614;2024-02-14T12:30:45;4.50;;;3.00;;
52942;SDS011;38809;53.300;6.614;2024-02-14T12:33:12;4.07;;;2.63;;
52942;SDS011;38809;53.300;6.614;2024-02-14T12:35:42;5.65;;;2.78;;
52942;SDS011;38809;53.300;6.614;2024-02-14T12:38:09;4.43;;;3.10;;
52942;SDS011;38809;53.300;6.614;2024-02-14T12:40:35;4.82;;;3.17;;
52942;SDS011;38809;53.300;6.614;2024-02-14T12:43:01;4.18;;;2.95;;
52942;SDS011;38809;53.300;6.614;2024-02-14T12:45:27;4.45;;;3.00;;
52942;SDS011;38809;53.300;6.614;2024-02-14T12:47:53;4.30;;;3.00;;
52942;SDS011;38809;53.300;6.614;2024-02-14T12:50:20;4.90;;;2.95;;
52942;SDS011;38809;53.300;6.614;2024-02-14T12:55:13;4.65;;;3.50;;
52942;SDS011;38809;53.300;6.614;2024-02-14T12:57:40;7.03;;;3.85;;
52942;SDS011;38809;53.300;6.614;2024-02-14T13:00:06;5.43;;;3.42;;
52942;SDS011;38809;53.300;6.614;2024-02-14T13:02:36;5.47;;;3.65;;
52942;SDS011;38809;53.300;6.614;2024-02-14T13:05:05;5.38;;;3.67;;
52942;SDS011;38809;53.300;6.614;2024-02-14T13:07:32;6.03;;;4.35;;
52942;SDS011;38809;53.300;6.614;2024-02-14T13:12:25;7.53;;;4.72;;
52942;SDS011;38809;53.300;6.614;2024-02-14T13:14:51;6.03;;;4.22;;
52942;SDS011;38809;53.300;6.614;2024-02-14T13:17:17;6.07;;;4.38;;
52942;SDS011;38809;53.300;6.614;2024-02-14T13:19:43;7.85;;;4.65;;
52942;SDS011;38809;53.300;6.614;2024-02-14T13:22:10;8.45;;;4.22;;
52942;SDS011;38809;53.300;6.614;2024-02-14T13:24:37;5.75;;;3.80;;
52942;SDS011;38809;53.300;6.614;2024-02-14T13:29:29;6.05;;;3.78;;
52942;SDS011;38809;53.300;6.614;2024-02-14T13:31:55;5.15;;;3.65;;
52942;SDS011;38809;53.300;6.614;2024-02-14T13:34:21;5.07;;;3.70;;
52942;SDS011;38809;53.300;6.614;2024-02-14T13:36:49;6.65;;;4.45;;
52942;SDS011;38809;53.300;6.614;2024-02-14T13:39:15;4.93;;;3.22;;
52942;SDS011;38809;53.300;6.614;2024-02-14T13:41:41;5.03;;;3.75;;
52942;SDS011;38809;53.300;6.614;2024-02-14T13:44:09;4.32;;;3.30;;
52942;SDS011;38809;53.300;6.614;2024-02-14T13:46:35;4.35;;;3.42;;
52942;SDS011;38809;53.300;6.614;2024-02-14T13:49:02;6.68;;;4.05;;
52942;SDS011;38809;53.300;6.614;2024-02-14T13:51:28;3.92;;;3.40;;
52942;SDS011;38809;53.300;6.614;2024-02-14T13:53:54;4.50;;;3.67;;
52942;SDS011;38809;53.300;6.614;2024-02-14T13:56:21;4.05;;;2.95;;
52942;SDS011;38809;53.300;6.614;2024-02-14T13:58:48;5.18;;;4.07;;
52942;SDS011;38809;53.300;6.614;2024-02-14T14:01:14;5.47;;;4.30;;
52942;SDS011;38809;53.300;6.614;2024-02-14T14:03:41;7.30;;;4.55;;
52942;SDS011;38809;53.300;6.614;2024-02-14T14:06:07;6.15;;;4.13;;
52942;SDS011;38809;53.300;6.614;2024-02-14T14:08:36;6.53;;;4.47;;
52942;SDS011;38809;53.300;6.614;2024-02-14T14:11:02;7.03;;;4.47;;
52942;SDS011;38809;53.300;6.614;2024-02-14T14:13:29;5.50;;;4.18;;
52942;SDS011;38809;53.300;6.614;2024-02-14T14:15:58;7.60;;;4.47;;
52942;SDS011;38809;53.300;6.614;2024-02-14T14:18:24;7.63;;;4.88;;
52942;SDS011;38809;53.300;6.614;2024-02-14T14:20:50;8.18;;;4.38;;
52942;SDS011;38809;53.300;6.614;2024-02-14T14:23:17;7.18;;;4.57;;
52942;SDS011;38809;53.300;6.614;2024-02-14T14:25:43;7.75;;;4.68;;
52942;SDS011;38809;53.300;6.614;2024-02-14T14:28:09;7.40;;;4.82;;
52942;SDS011;38809;53.300;6.614;2024-02-14T14:30:36;7.90;;;5.53;;
52942;SDS011;38809;53.300;6.614;2024-02-14T14:33:03;9.30;;;5.93;;
52942;SDS011;38809;53.300;6.614;2024-02-14T14:35:29;8.32;;;5.80;;
52942;SDS011;38809;53.300;6.614;2024-02-14T14:37:59;8.13;;;5.65;;
52942;SDS011;38809;53.300;6.614;2024-02-14T14:42:51;8.65;;;5.90;;
52942;SDS011;38809;53.300;6.614;2024-02-14T14:45:18;8.93;;;6.43;;
52942;SDS011;38809;53.300;6.614;2024-02-14T14:47:44;8.00;;;6.72;;
52942;SDS011;38809;53.300;6.614;2024-02-14T14:50:11;9.18;;;6.80;;
52942;SDS011;38809;53.300;6.614;2024-02-14T14:52:41;8.38;;;6.18;;
52942;SDS011;38809;53.300;6.614;2024-02-14T14:55:09;9.75;;;7.20;;
52942;SDS011;38809;53.300;6.614;2024-02-14T15:00:08;8.82;;;7.00;;
52942;SDS011;38809;53.300;6.614;2024-02-14T15:02:41;8.90;;;7.25;;
52942;SDS011;38809;53.300;6.614;2024-02-14T15:05:10;10.20;;;7.95;;
52942;SDS011;38809;53.300;6.614;2024-02-14T15:07:40;8.85;;;6.93;;
52942;SDS011;38809;53.300;6.614;2024-02-14T15:10:06;9.10;;;7.10;;
52942;SDS011;38809;53.300;6.614;2024-02-14T15:12:33;8.85;;;7.95;;
52942;SDS011;38809;53.300;6.614;2024-02-14T15:15:04;9.23;;;7.55;;
52942;SDS011;38809;53.300;6.614;2024-02-14T15:17:30;8.70;;;7.28;;
52942;SDS011;38809;53.300;6.614;2024-02-14T15:19:56;8.70;;;7.20;;
52942;SDS011;38809;53.300;6.614;2024-02-14T15:24:50;9.32;;;7.00;;
52942;SDS011;38809;53.300;6.614;2024-02-14T15:29:49;9.95;;;6.68;;
52942;SDS011;38809;53.300;6.614;2024-02-14T15:32:34;7.35;;;5.90;;
52942;SDS011;38809;53.300;6.614;2024-02-14T15:35:19;6.45;;;5.30;;
52942;SDS011;38809;53.300;6.614;2024-02-14T15:37:45;6.90;;;6.03;;